sensor_id;sensor_type;location;lat;lon;timestamp;pressure;altitude;pressure_sealevel;temperature;humidity
6136;BME280;24008;42.664;23.372;2023-02-13T00:02:04;96472.44;;;-1.07;100.00
6136;BME280;24008;42.664;23.372;2023-02-13T00:04:31;96484.97;;;-1.05;100.00
6136;BME280;24008;42.664;23.372;2023-02-13T00:06:57;96482.56;;;-1.10;100.00
6136;BME280;24008;42.664;23.372;2023-02-13T00:09:24;96416.41;;;-1.51;100.00
6136;BME280;24008;42.664;23.372;2023-02-13T00:11:51;96433.94;;;-1.49;100.00
6136;BME280;24008;42.664;23.372;2023-02-13T00:14:17;96480.91;;;-1.11;100.00
6136;BME280;24008;42.664;23.372;2023-02-13T00:16:44;96416.44;;;-1.54;100.00
6136;BME280;24008;42.664;23.372;2023-02-13T00:19:13;96487.63;;;-1.13;100.00
6136;BME280;24008;42.664;23.372;2023-02-13T00:21:39;96482.59;;;-1.12;100.00
6136;BME280;24008;42.664;23.372;2023-02-13T00:24:06;96386.78;;;-1.76;100.00
6136;BME280;24008;42.664;23.372;2023-02-13T00:26:33;96487.53;;;-1.09;100.00
6136;BME280;24008;42.664;23.372;2023-02-13T00:29:00;96334.66;;;-2.05;100.00
6136;BME280;24008;42.664;23.372;2023-02-13T00:31:27;96427.09;;;-1.41;100.00
6136;BME280;24008;42.664;23.372;2023-02-13T00:33:54;96486.59;;;-1.03;100.00
6136;BME280;24008;42.664;23.372;2023-02-13T00:36:24;96495.75;;;-1.00;100.00
6136;BME280;24008;42.664;23.372;2023-02-13T00:38:52;96403.97;;;-1.57;100.00
6136;BME280;24008;42.664;23.372;2023-02-13T00:41:19;96448.75;;;-1.35;100.00
6136;BME280;24008;42.664;23.372;2023-02-13T00:43:47;96341.22;;;-1.98;100.00
6136;BME280;24008;42.664;23.372;2023-02-13T00:46:14;96459.66;;;-1.38;100.00
6136;BME280;24008;42.664;23.372;2023-02-13T00:48:41;96429.97;;;-1.61;100.00
6136;BME280;24008;42.664;23.372;2023-02-13T00:51:08;96405.91;;;-1.71;100.00
6136;BME280;24008;42.664;23.372;2023-02-13T00:53:37;96458.66;;;-1.29;100.00
6136;BME280;24008;42.664;23.372;2023-02-13T00:56:05;96497.63;;;-1.10;100.00
6136;BME280;24008;42.664;23.372;2023-02-13T00:58:32;96459.50;;;-1.30;100.00
6136;BME280;24008;42.664;23.372;2023-02-13T01:00:59;96371.13;;;-1.89;100.00
6136;BME280;24008;42.664;23.372;2023-02-13T01:03:26;96505.78;;;-0.99;100.00
6136;BME280;24008;42.664;23.372;2023-02-13T01:05:55;96504.94;;;-0.98;100.00
6136;BME280;24008;42.664;23.372;2023-02-13T01:08:22;96503.19;;;-0.96;100.00
6136;BME280;24008;42.664;23.372;2023-02-13T01:10:54;96500.75;;;-0.97;100.00
6136;BME280;24008;42.664;23.372;2023-02-13T01:13:21;96504.84;;;-0.95;100.00
6136;BME280;24008;42.664;23.372;2023-02-13T01:15:48;96494.81;;;-0.95;100.00
6136;BME280;24008;42.664;23.372;2023-02-13T01:18:16;96435.34;;;-1.34;100.00
6136;BME280;24008;42.664;23.372;2023-02-13T01:20:43;96467.53;;;-1.12;100.00
6136;BME280;24008;42.664;23.372;2023-02-13T01:23:10;96375.88;;;-1.74;100.00
6136;BME280;24008;42.664;23.372;2023-02-13T01:25:39;96401.44;;;-1.57;100.00
6136;BME280;24008;42.664;23.372;2023-02-13T01:28:07;96463.41;;;-1.14;100.00
6136;BME280;24008;42.664;23.372;2023-02-13T01:30:34;96397.31;;;-1.58;100.00
6136;BME280;24008;42.664;23.372;2023-02-13T01:33:01;96507.16;;;-0.84;100.00
6136;BME280;24008;42.664;23.372;2023-02-13T01:35:28;96502.81;;;-0.75;100.00
6136;BME280;24008;42.664;23.372;2023-02-13T01:37:55;96521.06;;;-0.66;100.00
6136;BME280;24008;42.664;23.372;2023-02-13T01:40:21;96508.41;;;-0.62;100.00
6136;BME280;24008;42.664;23.372;2023-02-13T01:42:48;96494.22;;;-0.64;100.00
6136;BME280;24008;42.664;23.372;2023-02-13T01:45:22;96511.56;;;-0.52;100.00
6136;BME280;24008;42.664;23.372;2023-02-13T01:47:53;96521.59;;;-0.51;100.00
6136;BME280;24008;42.664;23.372;2023-02-13T01:50:23;96510.59;;;-0.47;100.00
6136;BME280;24008;42.664;23.372;2023-02-13T01:52:54;96416.38;;;-1.04;100.00
6136;BME280;24008;42.664;23.372;2023-02-13T01:55:23;96313.00;;;-1.63;100.00
6136;BME280;24008;42.664;23.372;2023-02-13T01:58:01;96373.25;;;-1.23;100.00
6136;BME280;24008;42.664;23.372;2023-02-13T02:00:31;96519.53;;;-0.32;100.00
6136;BME280;24008;42.664;23.372;2023-02-13T02:03:03;96511.97;;;-0.32;100.00
6136;BME280;24008;42.664;23.372;2023-02-13T02:05:33;96471.47;;;-0.57;100.00
6136;BME280;24008;42.664;23.372;2023-02-13T02:08:02;96510.28;;;-0.30;100.00
6136;BME280;24008;42.664;23.372;2023-02-13T02:10:29;96513.59;;;-0.28;100.00
6136;BME280;24008;42.664;23.372;2023-02-13T02:13:02;96530.31;;;-0.27;100.00
6136;BME280;24008;42.664;23.372;2023-02-13T02:15:32;96479.63;;;-0.47;100.00
6136;BME280;24008;42.664;23.372;2023-02-13T02:17:59;96508.50;;;-0.25;100.00
6136;BME280;24008;42.664;23.372;2023-02-13T02:20:42;96376.97;;;-0.99;100.00
6136;BME280;24008;42.664;23.372;2023-02-13T02:23:42;96403.44;;;-0.85;99.94
6136;BME280;24008;42.664;23.372;2023-02-13T02:29:48;96506.91;;;-0.29;99.66
6136;BME280;24008;42.664;23.372;2023-02-13T02:32:29;96515.25;;;-0.27;99.30
6136;BME280;24008;42.664;23.372;2023-02-13T02:35:08;96506.06;;;-0.29;99.93
6136;BME280;24008;42.664;23.372;2023-02-13T02:37:50;96374.91;;;-1.22;99.66
6136;BME280;24008;42.664;23.372;2023-02-13T02:40:25;96460.03;;;-0.70;99.39
6136;BME280;24008;42.664;23.372;2023-02-13T02:43:03;96522.88;;;-0.33;99.48
6136;BME280;24008;42.664;23.372;2023-02-13T02:45:37;96431.09;;;-0.88;99.64
6136;BME280;24008;42.664;23.372;2023-02-13T02:48:11;96418.03;;;-1.05;99.36
6136;BME280;24008;42.664;23.372;2023-02-13T02:51:03;96459.50;;;-0.86;99.32
6136;BME280;24008;42.664;23.372;2023-02-13T02:53:37;96534.72;;;-0.38;99.27
6136;BME280;24008;42.664;23.372;2023-02-13T02:56:11;96444.69;;;-0.98;99.71
6136;BME280;24008;42.664;23.372;2023-02-13T02:58:42;96399.31;;;-1.32;99.54
6136;BME280;24008;42.664;23.372;2023-02-13T03:01:29;96474.56;;;-0.86;100.00
6136;BME280;24008;42.664;23.372;2023-02-13T03:04:19;96509.31;;;-0.66;99.93
6136;BME280;24008;42.664;23.372;2023-02-13T03:07:07;96476.28;;;-0.88;99.88
6136;BME280;24008;42.664;23.372;2023-02-13T03:09:37;96494.28;;;-0.67;100.00
6136;BME280;24008;42.664;23.372;2023-02-13T03:12:26;96510.88;;;-0.60;100.00
6136;BME280;24008;42.664;23.372;2023-02-13T03:15:13;96417.50;;;-1.21;100.00
6136;BME280;24008;42.664;23.372;2023-02-13T03:17:39;96515.09;;;-0.61;100.00
6136;BME280;24008;42.664;23.372;2023-02-13T03:20:33;96510.81;;;-0.57;100.00
6136;BME280;24008;42.664;23.372;2023-02-13T03:23:22;96405.28;;;-1.37;99.62
6136;BME280;24008;42.664;23.372;2023-02-13T03:26:13;96535.19;;;-0.61;98.39
6136;BME280;24008;42.664;23.372;2023-02-13T03:28:51;96495.03;;;-1.07;97.50
6136;BME280;24008;42.664;23.372;2023-02-13T03:31:43;96509.22;;;-1.06;97.29
6136;BME280;24008;42.664;23.372;2023-02-13T03:34:18;96552.53;;;-0.95;96.84
6136;BME280;24008;42.664;23.372;2023-02-13T03:36:50;96517.78;;;-1.16;96.36
6136;BME280;24008;42.664;23.372;2023-02-13T03:39:45;96556.06;;;-1.05;96.21
6136;BME280;24008;42.664;23.372;2023-02-13T03:42:17;96498.75;;;-1.26;95.76
6136;BME280;24008;42.664;23.372;2023-02-13T03:44:49;96469.09;;;-1.54;95.84
6136;BME280;24008;42.664;23.372;2023-02-13T03:47:39;96540.28;;;-1.10;96.43
6136;BME280;24008;42.664;23.372;2023-02-13T03:50:08;96477.38;;;-1.49;96.22
6136;BME280;24008;42.664;23.372;2023-02-13T03:52:40;96546.91;;;-1.08;96.99
6136;BME280;24008;42.664;23.372;2023-02-13T03:55:12;96507.13;;;-1.27;96.81
6136;BME280;24008;42.664;23.372;2023-02-13T03:58:01;96548.38;;;-0.96;96.86
6136;BME280;24008;42.664;23.372;2023-02-13T04:00:49;96540.75;;;-0.91;97.27
6136;BME280;24008;42.664;23.372;2023-02-13T04:03:22;96543.22;;;-0.87;97.03
6136;BME280;24008;42.664;23.372;2023-02-13T04:05:55;96375.94;;;-1.78;97.10
6136;BME280;24008;42.664;23.372;2023-02-13T04:08:25;96537.97;;;-0.75;97.58
6136;BME280;24008;42.664;23.372;2023-02-13T04:10:55;96537.00;;;-0.69;96.89
6136;BME280;24008;42.664;23.372;2023-02-13T04:13:27;96476.78;;;-1.15;97.48
6136;BME280;24008;42.664;23.372;2023-02-13T04:15:58;96546.16;;;-0.66;96.83
6136;BME280;24008;42.664;23.372;2023-02-13T04:18:29;96538.78;;;-0.74;95.91
6136;BME280;24008;42.664;23.372;2023-02-13T04:21:00;96551.59;;;-0.88;95.03
6136;BME280;24008;42.664;23.372;2023-02-13T04:23:29;96545.91;;;-0.97;95.15
6136;BME280;24008;42.664;23.372;2023-02-13T04:25:57;96551.75;;;-0.97;95.26
6136;BME280;24008;42.664;23.372;2023-02-13T04:28:25;96526.97;;;-1.15;94.75
6136;BME280;24008;42.664;23.372;2023-02-13T04:30:52;96517.94;;;-1.24;94.43
6136;BME280;24008;42.664;23.372;2023-02-13T04:33:19;96522.94;;;-1.24;94.80
6136;BME280;24008;42.664;23.372;2023-02-13T04:35:46;96493.94;;;-1.40;95.34
6136;BME280;24008;42.664;23.372;2023-02-13T04:38:12;96542.66;;;-1.04;95.16
6136;BME280;24008;42.664;23.372;2023-02-13T04:40:40;96541.13;;;-1.11;95.29
6136;BME280;24008;42.664;23.372;2023-02-13T04:43:07;96304.53;;;-2.53;95.62
6136;BME280;24008;42.664;23.372;2023-02-13T04:45:34;96560.28;;;-1.07;95.67
6136;BME280;24008;42.664;23.372;2023-02-13T04:48:00;96327.75;;;-2.42;95.84
6136;BME280;24008;42.664;23.372;2023-02-13T04:50:27;96500.44;;;-1.28;96.07
6136;BME280;24008;42.664;23.372;2023-02-13T04:52:55;96551.00;;;-1.02;95.47
6136;BME280;24008;42.664;23.372;2023-02-13T04:55:23;96391.56;;;-2.13;95.24
6136;BME280;24008;42.664;23.372;2023-02-13T04:57:52;96562.13;;;-1.18;94.73
6136;BME280;24008;42.664;23.372;2023-02-13T05:00:20;96435.59;;;-2.00;95.16
6136;BME280;24008;42.664;23.372;2023-02-13T05:02:47;96425.91;;;-2.20;94.86
6136;BME280;24008;42.664;23.372;2023-02-13T05:05:14;96502.00;;;-1.70;95.45
6136;BME280;24008;42.664;23.372;2023-02-13T05:07:41;96569.13;;;-1.34;95.41
6136;BME280;24008;42.664;23.372;2023-02-13T05:10:08;96580.94;;;-1.43;95.87
6136;BME280;24008;42.664;23.372;2023-02-13T05:12:35;96548.69;;;-1.66;95.22
6136;BME280;24008;42.664;23.372;2023-02-13T05:15:04;96541.31;;;-1.74;95.74
6136;BME280;24008;42.664;23.372;2023-02-13T05:17:31;96577.69;;;-1.49;96.38
6136;BME280;24008;42.664;23.372;2023-02-13T05:19:58;96584.44;;;-1.54;96.65
6136;BME280;24008;42.664;23.372;2023-02-13T05:22:25;96579.47;;;-1.57;96.43
6136;BME280;24008;42.664;23.372;2023-02-13T05:25:17;96589.56;;;-1.60;96.70
6136;BME280;24008;42.664;23.372;2023-02-13T05:27:44;96442.28;;;-2.56;97.20
6136;BME280;24008;42.664;23.372;2023-02-13T05:30:13;96541.69;;;-2.00;97.98
6136;BME280;24008;42.664;23.372;2023-02-13T05:32:39;96593.94;;;-1.72;97.89
6136;BME280;24008;42.664;23.372;2023-02-13T05:35:07;96587.97;;;-1.67;99.00
6136;BME280;24008;42.664;23.372;2023-02-13T05:37:34;96516.78;;;-2.10;99.35
6136;BME280;24008;42.664;23.372;2023-02-13T05:40:01;96517.56;;;-2.07;99.45
6136;BME280;24008;42.664;23.372;2023-02-13T05:42:28;96553.16;;;-1.85;99.60
6136;BME280;24008;42.664;23.372;2023-02-13T05:44:55;96586.97;;;-1.55;100.00
6136;BME280;24008;42.664;23.372;2023-02-13T05:47:23;96341.09;;;-3.00;99.74
6136;BME280;24008;42.664;23.372;2023-02-13T05:49:50;96557.06;;;-1.66;99.75
6136;BME280;24008;42.664;23.372;2023-02-13T05:52:17;96599.28;;;-1.40;99.87
6136;BME280;24008;42.664;23.372;2023-02-13T05:54:43;96418.00;;;-2.53;99.27
6136;BME280;24008;42.664;23.372;2023-02-13T05:57:10;96607.69;;;-1.42;99.34
6136;BME280;24008;42.664;23.372;2023-02-13T05:59:37;96452.00;;;-2.36;98.94
6136;BME280;24008;42.664;23.372;2023-02-13T06:02:04;96442.84;;;-2.37;99.12
6136;BME280;24008;42.664;23.372;2023-02-13T06:04:33;96506.47;;;-1.92;99.49
6136;BME280;24008;42.664;23.372;2023-02-13T06:07:01;96608.31;;;-1.28;99.17
6136;BME280;24008;42.664;23.372;2023-02-13T06:09:28;96471.69;;;-2.10;98.97
6136;BME280;24008;42.664;23.372;2023-02-13T06:11:55;96607.38;;;-1.21;98.34
6136;BME280;24008;42.664;23.372;2023-02-13T06:14:21;96545.25;;;-1.59;98.04
6136;BME280;24008;42.664;23.372;2023-02-13T06:16:48;96619.00;;;-1.17;97.79
6136;BME280;24008;42.664;23.372;2023-02-13T06:19:15;96620.63;;;-1.13;98.16
6136;BME280;24008;42.664;23.372;2023-02-13T06:21:43;96591.63;;;-1.32;97.93
6136;BME280;24008;42.664;23.372;2023-02-13T06:24:09;96615.56;;;-1.12;97.90
6136;BME280;24008;42.664;23.372;2023-02-13T06:26:36;96619.63;;;-1.04;97.38
6136;BME280;24008;42.664;23.372;2023-02-13T06:29:03;96615.41;;;-1.01;97.11
6136;BME280;24008;42.664;23.372;2023-02-13T06:31:29;96338.91;;;-2.64;96.77
6136;BME280;24008;42.664;23.372;2023-02-13T06:33:56;96620.81;;;-0.75;96.99
6136;BME280;24008;42.664;23.372;2023-02-13T06:36:23;96571.06;;;-1.02;96.58
6136;BME280;24008;42.664;23.372;2023-02-13T06:38:51;96619.84;;;-0.67;96.29
6136;BME280;24008;42.664;23.372;2023-02-13T06:41:18;96623.03;;;-0.59;95.95
6136;BME280;24008;42.664;23.372;2023-02-13T06:43:48;96591.63;;;-0.82;95.16
6136;BME280;24008;42.664;23.372;2023-02-13T06:46:15;96497.19;;;-1.33;93.85
6136;BME280;24008;42.664;23.372;2023-02-13T06:48:44;96628.75;;;-0.50;93.76
6136;BME280;24008;42.664;23.372;2023-02-13T06:51:11;96637.78;;;-0.41;93.38
6136;BME280;24008;42.664;23.372;2023-02-13T06:53:38;96631.53;;;-0.22;93.62
6136;BME280;24008;42.664;23.372;2023-02-13T06:56:08;96464.16;;;-1.09;92.54
6136;BME280;24008;42.664;23.372;2023-02-13T06:58:35;95926.53;;;-4.30;90.39
6136;BME280;24008;42.664;23.372;2023-02-13T07:01:03;96533.63;;;-0.68;90.00
6136;BME280;24008;42.664;23.372;2023-02-13T07:03:30;96623.44;;;0.07;89.25
6136;BME280;24008;42.664;23.372;2023-02-13T07:05:56;96565.31;;;-0.18;89.41
6136;BME280;24008;42.664;23.372;2023-02-13T07:08:23;96625.50;;;0.28;88.97
6136;BME280;24008;42.664;23.372;2023-02-13T07:10:50;96612.84;;;0.33;88.64
6136;BME280;24008;42.664;23.372;2023-02-13T07:13:18;96580.38;;;0.22;87.62
6136;BME280;24008;42.664;23.372;2023-02-13T07:15:45;96618.28;;;0.52;87.09
6136;BME280;24008;42.664;23.372;2023-02-13T07:18:11;96619.72;;;0.62;86.11
6136;BME280;24008;42.664;23.372;2023-02-13T07:20:38;96540.31;;;0.13;85.28
6136;BME280;24008;42.664;23.372;2023-02-13T07:23:05;96624.63;;;0.68;84.61
6136;BME280;24008;42.664;23.372;2023-02-13T07:25:32;96382.72;;;-0.96;83.59
6136;BME280;24008;42.664;23.372;2023-02-13T07:28:02;96626.25;;;0.70;84.13
6136;BME280;24008;42.664;23.372;2023-02-13T07:30:32;96558.22;;;0.36;84.45
6136;BME280;24008;42.664;23.372;2023-02-13T07:32:59;96603.72;;;0.64;84.12
6136;BME280;24008;42.664;23.372;2023-02-13T07:35:26;96630.28;;;0.78;83.52
6136;BME280;24008;42.664;23.372;2023-02-13T07:37:53;96629.31;;;0.83;83.96
6136;BME280;24008;42.664;23.372;2023-02-13T07:40:20;96629.91;;;0.93;83.53
6136;BME280;24008;42.664;23.372;2023-02-13T07:42:47;96626.44;;;0.97;83.32
6136;BME280;24008;42.664;23.372;2023-02-13T07:45:14;96622.94;;;1.04;82.98
6136;BME280;24008;42.664;23.372;2023-02-13T07:47:42;96591.59;;;0.82;82.53
6136;BME280;24008;42.664;23.372;2023-02-13T07:50:09;96542.63;;;0.59;82.37
6136;BME280;24008;42.664;23.372;2023-02-13T07:52:36;96554.16;;;0.68;82.37
6136;BME280;24008;42.664;23.372;2023-02-13T07:55:07;96452.38;;;0.12;82.89
6136;BME280;24008;42.664;23.372;2023-02-13T07:57:36;96505.72;;;0.60;82.38
6136;BME280;24008;42.664;23.372;2023-02-13T08:00:03;96629.69;;;1.36;81.77
6136;BME280;24008;42.664;23.372;2023-02-13T08:02:30;96641.28;;;1.43;81.50
6136;BME280;24008;42.664;23.372;2023-02-13T08:04:59;96633.47;;;1.52;81.45
6136;BME280;24008;42.664;23.372;2023-02-13T08:07:25;96568.97;;;1.14;80.72
6136;BME280;24008;42.664;23.372;2023-02-13T08:09:52;96631.59;;;1.59;80.62
6136;BME280;24008;42.664;23.372;2023-02-13T08:12:37;96621.53;;;1.59;80.43
6136;BME280;24008;42.664;23.372;2023-02-13T08:15:05;96563.78;;;1.20;80.43
6136;BME280;24008;42.664;23.372;2023-02-13T08:17:32;96623.28;;;1.57;80.63
6136;BME280;24008;42.664;23.372;2023-02-13T08:20:00;96383.53;;;0.16;80.14
6136;BME280;24008;42.664;23.372;2023-02-13T08:22:27;96625.63;;;1.63;80.10
6136;BME280;24008;42.664;23.372;2023-02-13T08:24:54;96560.22;;;1.27;79.33
6136;BME280;24008;42.664;23.372;2023-02-13T08:27:21;96621.19;;;1.71;78.90
6136;BME280;24008;42.664;23.372;2023-02-13T08:29:48;96614.28;;;1.79;78.54
6136;BME280;24008;42.664;23.372;2023-02-13T08:32:15;96562.13;;;1.50;78.25
6136;BME280;24008;42.664;23.372;2023-02-13T08:34:42;96597.06;;;1.93;77.89
6136;BME280;24008;42.664;23.372;2023-02-13T08:37:10;96616.72;;;2.11;77.07
6136;BME280;24008;42.664;23.372;2023-02-13T08:39:37;96615.94;;;2.09;77.41
6136;BME280;24008;42.664;23.372;2023-02-13T08:42:04;96560.63;;;1.74;76.53
6136;BME280;24008;42.664;23.372;2023-02-13T08:44:31;96541.00;;;1.56;77.20
6136;BME280;24008;42.664;23.372;2023-02-13T08:46:58;96559.06;;;1.70;76.98
6136;BME280;24008;42.664;23.372;2023-02-13T08:49:28;96422.72;;;0.89;76.55
6136;BME280;24008;42.664;23.372;2023-02-13T08:51:55;96615.63;;;2.20;76.21
6136;BME280;24008;42.664;23.372;2023-02-13T08:54:23;96603.81;;;1.93;75.97
6136;BME280;24008;42.664;23.372;2023-02-13T08:56:51;96624.09;;;2.17;76.50
6136;BME280;24008;42.664;23.372;2023-02-13T08:59:19;96619.69;;;2.26;76.44
6136;BME280;24008;42.664;23.372;2023-02-13T09:01:46;96621.88;;;2.36;76.40
6136;BME280;24008;42.664;23.372;2023-02-13T09:04:13;96625.19;;;2.38;75.66
6136;BME280;24008;42.664;23.372;2023-02-13T09:06:42;96597.84;;;2.25;74.87
6136;BME280;24008;42.664;23.372;2023-02-13T09:09:09;96629.06;;;2.50;75.09
6136;BME280;24008;42.664;23.372;2023-02-13T09:11:37;96631.34;;;2.58;74.32
6136;BME280;24008;42.664;23.372;2023-02-13T09:14:04;96627.28;;;2.53;74.56
6136;BME280;24008;42.664;23.372;2023-02-13T09:16:31;96621.03;;;2.65;73.99
6136;BME280;24008;42.664;23.372;2023-02-13T09:18:58;96589.13;;;2.63;74.12
6136;BME280;24008;42.664;23.372;2023-02-13T09:21:24;96528.19;;;2.47;73.72
6136;BME280;24008;42.664;23.372;2023-02-13T09:23:51;96456.94;;;2.12;72.69
6136;BME280;24008;42.664;23.372;2023-02-13T09:26:19;96584.75;;;2.94;71.96
6136;BME280;24008;42.664;23.372;2023-02-13T09:28:48;96613.56;;;3.40;72.28
6136;BME280;24008;42.664;23.372;2023-02-13T09:31:17;96611.19;;;3.60;71.55
6136;BME280;24008;42.664;23.372;2023-02-13T09:33:45;96614.53;;;3.85;70.73
6136;BME280;24008;42.664;23.372;2023-02-13T09:36:14;96603.66;;;4.28;69.72
6136;BME280;24008;42.664;23.372;2023-02-13T09:38:43;96533.66;;;4.27;68.67
6136;BME280;24008;42.664;23.372;2023-02-13T09:41:13;96588.88;;;4.83;66.65
6136;BME280;24008;42.664;23.372;2023-02-13T09:43:45;96530.81;;;4.35;65.92
6136;BME280;24008;42.664;23.372;2023-02-13T09:46:17;96580.75;;;4.75;65.71
6136;BME280;24008;42.664;23.372;2023-02-13T09:48:53;96551.22;;;4.32;65.22
6136;BME280;24008;42.664;23.372;2023-02-13T09:51:25;96268.16;;;2.50;65.16
6136;BME280;24008;42.664;23.372;2023-02-13T09:53:57;96580.81;;;4.74;65.78
6136;BME280;24008;42.664;23.372;2023-02-13T09:56:36;96579.00;;;4.77;64.99
6136;BME280;24008;42.664;23.372;2023-02-13T09:59:16;96575.69;;;4.75;64.64
6136;BME280;24008;42.664;23.372;2023-02-13T10:01:49;96492.00;;;4.14;65.03
6136;BME280;24008;42.664;23.372;2023-02-13T10:04:26;96563.56;;;5.03;64.87
6136;BME280;24008;42.664;23.372;2023-02-13T10:07:08;96555.72;;;5.10;63.18
6136;BME280;24008;42.664;23.372;2023-02-13T10:09:48;96219.00;;;3.25;63.48
6136;BME280;24008;42.664;23.372;2023-02-13T10:12:27;96538.13;;;5.06;62.56
6136;BME280;24008;42.664;23.372;2023-02-13T10:15:10;96516.22;;;4.84;62.51
6136;BME280;24008;42.664;23.372;2023-02-13T10:17:43;96558.59;;;5.61;62.82
6136;BME280;24008;42.664;23.372;2023-02-13T10:20:22;96374.88;;;4.92;61.37
6136;BME280;24008;42.664;23.372;2023-02-13T10:22:53;96454.25;;;6.60;59.72
6136;BME280;24008;42.664;23.372;2023-02-13T10:25:46;96541.66;;;8.39;56.24
6136;BME280;24008;42.664;23.372;2023-02-13T10:28:18;96468.50;;;8.25;52.76
6136;BME280;24008;42.664;23.372;2023-02-13T10:30:52;96524.09;;;9.10;51.88
6136;BME280;24008;42.664;23.372;2023-02-13T10:33:26;96474.47;;;8.86;51.82
6136;BME280;24008;42.664;23.372;2023-02-13T10:35:59;96526.06;;;9.49;51.04
6136;BME280;24008;42.664;23.372;2023-02-13T10:38:29;96511.00;;;9.59;49.64
6136;BME280;24008;42.664;23.372;2023-02-13T10:41:19;96516.75;;;9.34;49.76
6136;BME280;24008;42.664;23.372;2023-02-13T10:44:02;96406.16;;;8.01;50.22
6136;BME280;24008;42.664;23.372;2023-02-13T10:46:42;96499.91;;;7.94;51.47
6136;BME280;24008;42.664;23.372;2023-02-13T10:49:30;96306.75;;;5.76;54.65
6136;BME280;24008;42.664;23.372;2023-02-13T10:52:08;96503.63;;;6.18;56.49
6136;BME280;24008;42.664;23.372;2023-02-13T10:55:13;96499.28;;;6.03;58.16
6136;BME280;24008;42.664;23.372;2023-02-13T10:58:01;96386.13;;;5.42;58.46
6136;BME280;24008;42.664;23.372;2023-02-13T11:00:34;96487.50;;;6.19;59.06
6136;BME280;24008;42.664;23.372;2023-02-13T11:03:03;96501.03;;;6.20;58.60
6136;BME280;24008;42.664;23.372;2023-02-13T11:05:32;96387.19;;;5.56;58.62
6136;BME280;24008;42.664;23.372;2023-02-13T11:08:02;96476.50;;;6.37;58.00
6136;BME280;24008;42.664;23.372;2023-02-13T11:10:30;96440.91;;;6.20;57.65
6136;BME280;24008;42.664;23.372;2023-02-13T11:13:13;96250.78;;;4.90;57.53
6136;BME280;24008;42.664;23.372;2023-02-13T11:15:41;96154.28;;;4.21;57.90
6136;BME280;24008;42.664;23.372;2023-02-13T11:18:13;96472.84;;;6.07;58.24
6136;BME280;24008;42.664;23.372;2023-02-13T11:20:43;96423.88;;;5.86;57.54
6136;BME280;24008;42.664;23.372;2023-02-13T11:23:32;96455.88;;;6.26;57.62
6136;BME280;24008;42.664;23.372;2023-02-13T11:26:03;96439.50;;;6.32;57.08
6136;BME280;24008;42.664;23.372;2023-02-13T11:28:36;96336.44;;;5.74;57.65
6136;BME280;24008;42.664;23.372;2023-02-13T11:31:20;96322.00;;;5.58;57.08
6136;BME280;24008;42.664;23.372;2023-02-13T11:33:48;96435.84;;;6.37;56.25
6136;BME280;24008;42.664;23.372;2023-02-13T11:36:15;96348.22;;;5.94;56.29
6136;BME280;24008;42.664;23.372;2023-02-13T11:38:43;96344.09;;;5.92;56.42
6136;BME280;24008;42.664;23.372;2023-02-13T11:41:12;96411.81;;;6.27;56.63
6136;BME280;24008;42.664;23.372;2023-02-13T11:43:44;96409.81;;;5.98;57.25
6136;BME280;24008;42.664;23.372;2023-02-13T11:46:17;96411.72;;;5.93;58.07
6136;BME280;24008;42.664;23.372;2023-02-13T11:48:55;96386.75;;;5.84;58.08
6136;BME280;24008;42.664;23.372;2023-02-13T11:51:34;96398.78;;;6.16;58.47
6136;BME280;24008;42.664;23.372;2023-02-13T11:54:02;96393.28;;;6.25;57.54
6136;BME280;24008;42.664;23.372;2023-02-13T11:56:46;96320.31;;;5.94;57.23
6136;BME280;24008;42.664;23.372;2023-02-13T11:59:14;96346.50;;;6.29;56.80
6136;BME280;24008;42.664;23.372;2023-02-13T12:01:41;96372.19;;;6.40;56.00
6136;BME280;24008;42.664;23.372;2023-02-13T12:04:13;96338.44;;;6.04;56.29
6136;BME280;24008;42.664;23.372;2023-02-13T12:06:58;96301.63;;;5.95;55.97
6136;BME280;24008;42.664;23.372;2023-02-13T12:09:26;96339.66;;;6.14;55.07
6136;BME280;24008;42.664;23.372;2023-02-13T12:11:57;96365.50;;;6.39;55.24
6136;BME280;24008;42.664;23.372;2023-02-13T12:14:26;96365.69;;;6.52;55.45
6136;BME280;24008;42.664;23.372;2023-02-13T12:16:59;96357.84;;;6.57;54.16
6136;BME280;24008;42.664;23.372;2023-02-13T12:19:32;96361.91;;;6.43;54.66
6136;BME280;24008;42.664;23.372;2023-02-13T12:22:29;96268.38;;;6.01;54.73
6136;BME280;24008;42.664;23.372;2023-02-13T12:28:09;96350.91;;;6.93;52.79
6136;BME280;24008;42.664;23.372;2023-02-13T12:30:58;96334.06;;;6.75;52.41
6136;BME280;24008;42.664;23.372;2023-02-13T12:33:48;96333.75;;;6.81;52.50
6136;BME280;24008;42.664;23.372;2023-02-13T12:36:26;96341.63;;;6.92;52.44
6136;BME280;24008;42.664;23.372;2023-02-13T12:39:06;96345.06;;;6.91;52.50
6136;BME280;24008;42.664;23.372;2023-02-13T12:41:38;96232.56;;;6.23;51.07
6136;BME280;24008;42.664;23.372;2023-02-13T12:44:36;96337.81;;;6.68;50.59
6136;BME280;24008;42.664;23.372;2023-02-13T12:47:14;96193.78;;;5.87;51.25
6136;BME280;24008;42.664;23.372;2023-02-13T12:52:49;96325.84;;;6.70;50.53
6136;BME280;24008;42.664;23.372;2023-02-13T12:55:36;96238.25;;;6.11;50.17
6136;BME280;24008;42.664;23.372;2023-02-13T12:58:22;96313.78;;;6.58;50.28
6136;BME280;24008;42.664;23.372;2023-02-13T13:01:02;96270.25;;;6.31;50.49
6136;BME280;24008;42.664;23.372;2023-02-13T13:03:40;96161.41;;;5.57;49.83
6136;BME280;24008;42.664;23.372;2023-02-13T13:06:37;96314.81;;;6.54;49.86
6136;BME280;24008;42.664;23.372;2023-02-13T13:09:25;96282.34;;;6.43;49.49
6136;BME280;24008;42.664;23.372;2023-02-13T13:12:16;96310.31;;;6.76;49.38
6136;BME280;24008;42.664;23.372;2023-02-13T13:14:52;96249.09;;;6.47;49.54
6136;BME280;24008;42.664;23.372;2023-02-13T13:17:31;96302.31;;;6.66;49.70
6136;BME280;24008;42.664;23.372;2023-02-13T13:20:17;96330.31;;;6.65;50.32
6136;BME280;24008;42.664;23.372;2023-02-13T13:22:55;96301.34;;;6.69;50.16
6136;BME280;24008;42.664;23.372;2023-02-13T13:25:31;96217.00;;;6.29;50.27
6136;BME280;24008;42.664;23.372;2023-02-13T13:28:03;96236.53;;;6.44;49.69
6136;BME280;24008;42.664;23.372;2023-02-13T13:30:35;96288.06;;;6.64;49.55
6136;BME280;24008;42.664;23.372;2023-02-13T13:33:09;96288.84;;;6.64;50.05
6136;BME280;24008;42.664;23.372;2023-02-13T13:35:37;96251.22;;;6.39;50.04
6136;BME280;24008;42.664;23.372;2023-02-13T13:38:13;96277.72;;;6.51;50.04